sensor_id;sensor_type;location;lat;lon;timestamp;P1;durP1;ratioP1;P2;durP2;ratioP2
16957;SDS011;8595;52.542;11.974;2023-04-08T00:01:02;20.20;;;13.93;;
16957;SDS011;8595;52.542;11.974;2023-04-08T00:03:28;17.50;;;13.13;;
16957;SDS011;8595;52.542;11.974;2023-04-08T00:05:56;16.23;;;12.53;;
16957;SDS011;8595;52.542;11.974;2023-04-08T00:08:26;18.73;;;14.40;;
16957;SDS011;8595;52.542;11.974;2023-04-08T00:10:52;17.47;;;12.60;;
16957;SDS011;8595;52.542;11.974;2023-04-08T00:13:19;20.00;;;14.53;;
16957;SDS011;8595;52.542;11.974;2023-04-08T00:15:46;18.73;;;13.50;;
16957;SDS011;8595;52.542;11.974;2023-04-08T00:18:13;23.07;;;15.13;;
16957;SDS011;8595;52.542;11.974;2023-04-08T00:20:41;19.90;;;13.63;;
16957;SDS011;8595;52.542;11.974;2023-04-08T00:23:07;19.87;;;13.90;;
16957;SDS011;8595;52.542;11.974;2023-04-08T00:25:35;24.40;;;15.43;;
16957;SDS011;8595;52.542;11.974;2023-04-08T00:28:02;21.67;;;15.03;;
16957;SDS011;8595;52.542;11.974;2023-04-08T00:30:29;19.33;;;13.50;;
16957;SDS011;8595;52.542;11.974;2023-04-08T00:32:56;22.47;;;15.10;;
16957;SDS011;8595;52.542;11.974;2023-04-08T00:35:22;19.23;;;13.93;;
16957;SDS011;8595;52.542;11.974;2023-04-08T00:37:49;22.47;;;14.87;;
16957;SDS011;8595;52.542;11.974;2023-04-08T00:40:16;21.13;;;14.17;;
16957;SDS011;8595;52.542;11.974;2023-04-08T00:42:44;21.40;;;15.17;;
16957;SDS011;8595;52.542;11.974;2023-04-08T00:45:12;20.03;;;14.57;;
16957;SDS011;8595;52.542;11.974;2023-04-08T00:47:38;24.43;;;14.77;;
16957;SDS011;8595;52.542;11.974;2023-04-08T00:50:06;20.40;;;14.93;;
16957;SDS011;8595;52.542;11.974;2023-04-08T00:52:34;22.30;;;15.13;;
16957;SDS011;8595;52.542;11.974;2023-04-08T00:55:01;22.65;;;16.52;;
16957;SDS011;8595;52.542;11.974;2023-04-08T00:57:28;21.90;;;15.63;;
16957;SDS011;8595;52.542;11.974;2023-04-08T00:59:56;25.50;;;15.93;;
16957;SDS011;8595;52.542;11.974;2023-04-08T01:02:25;22.20;;;15.83;;
16957;SDS011;8595;52.542;11.974;2023-04-08T01:04:58;25.03;;;16.40;;
16957;SDS011;8595;52.542;11.974;2023-04-08T01:07:29;23.17;;;16.37;;
16957;SDS011;8595;52.542;11.974;2023-04-08T01:09:58;25.60;;;15.13;;
16957;SDS011;8595;52.542;11.974;2023-04-08T01:12:29;26.33;;;16.30;;
16957;SDS011;8595;52.542;11.974;2023-04-08T01:14:59;27.20;;;16.63;;
16957;SDS011;8595;52.542;11.974;2023-04-08T01:17:29;24.77;;;16.30;;
16957;SDS011;8595;52.542;11.974;2023-04-08T01:19:58;23.63;;;16.93;;
16957;SDS011;8595;52.542;11.974;2023-04-08T01:22:28;25.10;;;15.73;;
16957;SDS011;8595;52.542;11.974;2023-04-08T01:25:04;27.48;;;17.90;;
16957;SDS011;8595;52.542;11.974;2023-04-08T01:27:35;25.20;;;17.63;;
16957;SDS011;8595;52.542;11.974;2023-04-08T01:30:03;28.13;;;18.47;;
16957;SDS011;8595;52.542;11.974;2023-04-08T01:32:32;24.37;;;17.03;;
16957;SDS011;8595;52.542;11.974;2023-04-08T01:35:00;27.20;;;18.27;;
16957;SDS011;8595;52.542;11.974;2023-04-08T01:37:28;28.53;;;18.70;;
16957;SDS011;8595;52.542;11.974;2023-04-08T01:39:56;29.67;;;18.90;;
16957;SDS011;8595;52.542;11.974;2023-04-08T01:42:25;28.90;;;18.77;;
16957;SDS011;8595;52.542;11.974;2023-04-08T01:44:55;28.50;;;18.40;;
16957;SDS011;8595;52.542;11.974;2023-04-08T01:47:24;27.93;;;18.97;;
16957;SDS011;8595;52.542;11.974;2023-04-08T01:49:52;31.20;;;19.57;;
16957;SDS011;8595;52.542;11.974;2023-04-08T01:52:20;28.47;;;17.87;;
16957;SDS011;8595;52.542;11.974;2023-04-08T01:54:48;30.73;;;19.83;;
16957;SDS011;8595;52.542;11.974;2023-04-08T01:57:16;26.93;;;17.70;;
16957;SDS011;8595;52.542;11.974;2023-04-08T01:59:49;28.17;;;17.97;;
16957;SDS011;8595;52.542;11.974;2023-04-08T02:02:18;25.37;;;17.23;;
16957;SDS011;8595;52.542;11.974;2023-04-08T02:04:46;27.93;;;18.50;;
16957;SDS011;8595;52.542;11.974;2023-04-08T02:07:13;34.03;;;19.80;;
16957;SDS011;8595;52.542;11.974;2023-04-08T02:09:40;34.13;;;20.70;;
16957;SDS011;8595;52.542;11.974;2023-04-08T02:12:07;32.63;;;20.63;;
16957;SDS011;8595;52.542;11.974;2023-04-08T02:14:35;31.60;;;18.87;;
16957;SDS011;8595;52.542;11.974;2023-04-08T02:17:04;31.53;;;19.97;;
16957;SDS011;8595;52.542;11.974;2023-04-08T02:19:38;31.10;;;19.43;;
16957;SDS011;8595;52.542;11.974;2023-04-08T02:22:16;35.83;;;20.87;;
16957;SDS011;8595;52.542;11.974;2023-04-08T02:24:45;44.77;;;24.43;;
16957;SDS011;8595;52.542;11.974;2023-04-08T02:27:13;30.97;;;19.97;;
16957;SDS011;8595;52.542;11.974;2023-04-08T02:29:42;28.40;;;19.20;;
16957;SDS011;8595;52.542;11.974;2023-04-08T02:32:11;33.10;;;20.80;;
16957;SDS011;8595;52.542;11.974;2023-04-08T02:34:41;39.33;;;21.97;;
16957;SDS011;8595;52.542;11.974;2023-04-08T02:37:09;33.70;;;21.10;;
16957;SDS011;8595;52.542;11.974;2023-04-08T02:39:36;35.57;;;21.47;;
16957;SDS011;8595;52.542;11.974;2023-04-08T02:42:02;40.03;;;22.90;;
16957;SDS011;8595;52.542;11.974;2023-04-08T02:44:30;37.17;;;20.93;;
16957;SDS011;8595;52.542;11.974;2023-04-08T02:46:56;40.83;;;24.00;;
16957;SDS011;8595;52.542;11.974;2023-04-08T02:49:23;36.03;;;20.77;;
16957;SDS011;8595;52.542;11.974;2023-04-08T02:51:51;43.30;;;23.70;;
16957;SDS011;8595;52.542;11.974;2023-04-08T02:54:19;44.03;;;22.43;;
16957;SDS011;8595;52.542;11.974;2023-04-08T02:56:45;42.80;;;23.57;;
16957;SDS011;8595;52.542;11.974;2023-04-08T02:59:13;50.13;;;25.87;;
16957;SDS011;8595;52.542;11.974;2023-04-08T03:01:40;47.23;;;22.63;;
16957;SDS011;8595;52.542;11.974;2023-04-08T03:04:07;43.33;;;22.93;;
16957;SDS011;8595;52.542;11.974;2023-04-08T03:06:34;41.63;;;22.73;;
16957;SDS011;8595;52.542;11.974;2023-04-08T03:09:02;36.20;;;21.43;;
16957;SDS011;8595;52.542;11.974;2023-04-08T03:11:30;37.87;;;20.93;;
16957;SDS011;8595;52.542;11.974;2023-04-08T03:13:57;36.73;;;21.47;;
16957;SDS011;8595;52.542;11.974;2023-04-08T03:16:24;37.60;;;21.50;;
16957;SDS011;8595;52.542;11.974;2023-04-08T03:18:51;38.97;;;21.97;;
16957;SDS011;8595;52.542;11.974;2023-04-08T03:21:18;36.33;;;20.47;;
16957;SDS011;8595;52.542;11.974;2023-04-08T03:23:45;37.90;;;21.60;;
16957;SDS011;8595;52.542;11.974;2023-04-08T03:26:13;39.50;;;22.07;;
16957;SDS011;8595;52.542;11.974;2023-04-08T03:28:39;40.90;;;22.53;;
16957;SDS011;8595;52.542;11.974;2023-04-08T03:31:06;37.23;;;20.60;;
16957;SDS011;8595;52.542;11.974;2023-04-08T03:33:33;36.97;;;20.47;;
16957;SDS011;8595;52.542;11.974;2023-04-08T03:35:59;40.40;;;22.30;;
16957;SDS011;8595;52.542;11.974;2023-04-08T03:38:26;37.73;;;21.87;;
16957;SDS011;8595;52.542;11.974;2023-04-08T03:40:53;39.37;;;22.00;;
16957;SDS011;8595;52.542;11.974;2023-04-08T03:43:21;38.83;;;21.27;;
16957;SDS011;8595;52.542;11.974;2023-04-08T03:45:49;43.17;;;21.40;;
16957;SDS011;8595;52.542;11.974;2023-04-08T03:48:16;40.70;;;22.43;;
16957;SDS011;8595;52.542;11.974;2023-04-08T03:50:42;34.37;;;21.10;;
16957;SDS011;8595;52.542;11.974;2023-04-08T03:53:09;37.80;;;21.33;;
16957;SDS011;8595;52.542;11.974;2023-04-08T03:55:37;37.33;;;22.90;;
16957;SDS011;8595;52.542;11.974;2023-04-08T03:58:03;38.07;;;22.00;;
16957;SDS011;8595;52.542;11.974;2023-04-08T04:00:32;40.73;;;23.17;;
16957;SDS011;8595;52.542;11.974;2023-04-08T04:03:00;39.87;;;21.77;;
16957;SDS011;8595;52.542;11.974;2023-04-08T04:05:26;39.40;;;23.37;;
16957;SDS011;8595;52.542;11.974;2023-04-08T04:07:53;37.13;;;20.27;;
16957;SDS011;8595;52.542;11.974;2023-04-08T04:10:22;42.33;;;22.43;;
16957;SDS011;8595;52.542;11.974;2023-04-08T04:12:49;47.27;;;23.50;;
16957;SDS011;8595;52.542;11.974;2023-04-08T04:15:18;44.70;;;24.20;;
16957;SDS011;8595;52.542;11.974;2023-04-08T04:17:47;41.27;;;21.23;;
16957;SDS011;8595;52.542;11.974;2023-04-08T04:20:15;40.10;;;21.53;;
16957;SDS011;8595;52.542;11.974;2023-04-08T04:22:43;38.80;;;21.97;;
16957;SDS011;8595;52.542;11.974;2023-04-08T04:25:10;37.60;;;21.50;;
16957;SDS011;8595;52.542;11.974;2023-04-08T04:27:36;40.70;;;22.53;;
16957;SDS011;8595;52.542;11.974;2023-04-08T04:30:04;34.73;;;21.33;;
16957;SDS011;8595;52.542;11.974;2023-04-08T04:32:33;38.17;;;21.43;;
16957;SDS011;8595;52.542;11.974;2023-04-08T04:35:01;48.57;;;23.47;;
16957;SDS011;8595;52.542;11.974;2023-04-08T04:37:28;46.70;;;23.40;;
16957;SDS011;8595;52.542;11.974;2023-04-08T04:39:56;40.33;;;21.83;;
16957;SDS011;8595;52.542;11.974;2023-04-08T04:42:23;37.17;;;22.30;;
16957;SDS011;8595;52.542;11.974;2023-04-08T04:44:50;40.37;;;22.53;;
16957;SDS011;8595;52.542;11.974;2023-04-08T04:47:18;45.30;;;24.37;;
16957;SDS011;8595;52.542;11.974;2023-04-08T04:49:44;41.63;;;23.50;;
16957;SDS011;8595;52.542;11.974;2023-04-08T04:52:12;34.10;;;21.27;;
16957;SDS011;8595;52.542;11.974;2023-04-08T04:54:40;35.50;;;21.13;;
16957;SDS011;8595;52.542;11.974;2023-04-08T04:57:06;37.17;;;20.83;;
16957;SDS011;8595;52.542;11.974;2023-04-08T04:59:33;44.13;;;23.63;;
16957;SDS011;8595;52.542;11.974;2023-04-08T05:02:01;37.30;;;21.70;;
16957;SDS011;8595;52.542;11.974;2023-04-08T05:04:28;40.63;;;23.20;;
16957;SDS011;8595;52.542;11.974;2023-04-08T05:06:55;40.40;;;21.07;;
16957;SDS011;8595;52.542;11.974;2023-04-08T05:09:26;40.53;;;22.40;;
16957;SDS011;8595;52.542;11.974;2023-04-08T05:11:54;35.77;;;21.57;;
16957;SDS011;8595;52.542;11.974;2023-04-08T05:14:21;37.90;;;22.00;;
16957;SDS011;8595;52.542;11.974;2023-04-08T05:16:47;36.03;;;21.20;;
16957;SDS011;8595;52.542;11.974;2023-04-08T05:19:15;40.77;;;21.23;;
16957;SDS011;8595;52.542;11.974;2023-04-08T05:21:42;40.17;;;24.13;;
16957;SDS011;8595;52.542;11.974;2023-04-08T05:24:09;43.17;;;23.60;;
16957;SDS011;8595;52.542;11.974;2023-04-08T05:26:37;39.17;;;21.73;;
16957;SDS011;8595;52.542;11.974;2023-04-08T05:29:03;40.00;;;26.03;;
16957;SDS011;8595;52.542;11.974;2023-04-08T05:31:31;37.77;;;23.07;;
16957;SDS011;8595;52.542;11.974;2023-04-08T05:33:59;39.67;;;23.33;;
16957;SDS011;8595;52.542;11.974;2023-04-08T05:36:25;34.80;;;22.67;;
16957;SDS011;8595;52.542;11.974;2023-04-08T05:38:52;40.10;;;23.77;;
16957;SDS011;8595;52.542;11.974;2023-04-08T05:41:20;40.60;;;22.67;;
16957;SDS011;8595;52.542;11.974;2023-04-08T05:43:48;37.37;;;22.47;;
16957;SDS011;8595;52.542;11.974;2023-04-08T05:46:15;36.90;;;21.70;;
16957;SDS011;8595;52.542;11.974;2023-04-08T05:48:42;33.50;;;20.50;;
16957;SDS011;8595;52.542;11.974;2023-04-08T05:51:11;38.53;;;21.80;;
16957;SDS011;8595;52.542;11.974;2023-04-08T05:53:39;40.70;;;22.57;;
16957;SDS011;8595;52.542;11.974;2023-04-08T05:56:06;33.60;;;20.10;;
16957;SDS011;8595;52.542;11.974;2023-04-08T05:58:33;40.57;;;24.00;;
16957;SDS011;8595;52.542;11.974;2023-04-08T06:01:01;38.40;;;22.53;;
16957;SDS011;8595;52.542;11.974;2023-04-08T06:03:30;41.43;;;21.80;;
16957;SDS011;8595;52.542;11.974;2023-04-08T06:05:57;41.93;;;23.03;;
16957;SDS011;8595;52.542;11.974;2023-04-08T06:08:24;44.17;;;24.63;;
16957;SDS011;8595;52.542;11.974;2023-04-08T06:10:50;50.47;;;26.37;;
16957;SDS011;8595;52.542;11.974;2023-04-08T06:13:17;44.57;;;24.87;;
16957;SDS011;8595;52.542;11.974;2023-04-08T06:15:45;46.27;;;25.53;;
16957;SDS011;8595;52.542;11.974;2023-04-08T06:18:14;50.07;;;28.70;;
16957;SDS011;8595;52.542;11.974;2023-04-08T06:20:41;49.83;;;27.97;;
16957;SDS011;8595;52.542;11.974;2023-04-08T06:23:07;48.23;;;29.37;;
16957;SDS011;8595;52.542;11.974;2023-04-08T06:25:34;48.77;;;25.60;;
16957;SDS011;8595;52.542;11.974;2023-04-08T06:28:01;39.43;;;22.27;;
16957;SDS011;8595;52.542;11.974;2023-04-08T06:30:30;41.57;;;24.20;;
16957;SDS011;8595;52.542;11.974;2023-04-08T06:32:57;43.53;;;24.00;;
16957;SDS011;8595;52.542;11.974;2023-04-08T06:35:25;40.43;;;23.17;;
16957;SDS011;8595;52.542;11.974;2023-04-08T06:37:53;42.50;;;25.27;;
16957;SDS011;8595;52.542;11.974;2023-04-08T06:40:20;46.63;;;25.38;;
16957;SDS011;8595;52.542;11.974;2023-04-08T06:42:46;41.87;;;24.43;;
16957;SDS011;8595;52.542;11.974;2023-04-08T06:45:13;44.88;;;25.27;;
16957;SDS011;8595;52.542;11.974;2023-04-08T06:47:40;46.45;;;24.70;;
16957;SDS011;8595;52.542;11.974;2023-04-08T06:50:07;40.63;;;23.30;;
16957;SDS011;8595;52.542;11.974;2023-04-08T06:52:36;43.23;;;24.93;;
16957;SDS011;8595;52.542;11.974;2023-04-08T06:55:02;39.63;;;23.57;;
16957;SDS011;8595;52.542;11.974;2023-04-08T06:57:31;39.90;;;21.33;;
16957;SDS011;8595;52.542;11.974;2023-04-08T06:59:57;37.97;;;20.97;;
16957;SDS011;8595;52.542;11.974;2023-04-08T07:02:25;35.07;;;21.33;;
16957;SDS011;8595;52.542;11.974;2023-04-08T07:04:52;39.47;;;23.47;;
16957;SDS011;8595;52.542;11.974;2023-04-08T07:07:21;36.33;;;22.92;;
16957;SDS011;8595;52.542;11.974;2023-04-08T07:09:49;37.38;;;22.75;;
16957;SDS011;8595;52.542;11.974;2023-04-08T07:12:16;41.80;;;24.20;;
16957;SDS011;8595;52.542;11.974;2023-04-08T07:14:43;39.17;;;22.73;;
16957;SDS011;8595;52.542;11.974;2023-04-08T07:17:10;34.87;;;21.57;;
16957;SDS011;8595;52.542;11.974;2023-04-08T07:19:36;34.33;;;20.20;;
16957;SDS011;8595;52.542;11.974;2023-04-08T07:22:03;31.33;;;18.93;;
16957;SDS011;8595;52.542;11.974;2023-04-08T07:24:30;36.13;;;22.07;;
16957;SDS011;8595;52.542;11.974;2023-04-08T07:26:58;36.03;;;21.63;;
16957;SDS011;8595;52.542;11.974;2023-04-08T07:29:24;38.93;;;20.87;;
16957;SDS011;8595;52.542;11.974;2023-04-08T07:31:52;36.55;;;20.88;;
16957;SDS011;8595;52.542;11.974;2023-04-08T07:34:18;39.87;;;21.80;;
16957;SDS011;8595;52.542;11.974;2023-04-08T07:36:45;40.27;;;24.47;;
16957;SDS011;8595;52.542;11.974;2023-04-08T07:39:13;32.63;;;19.70;;
16957;SDS011;8595;52.542;11.974;2023-04-08T07:41:40;36.50;;;21.43;;
16957;SDS011;8595;52.542;11.974;2023-04-08T07:44:08;34.83;;;20.60;;
16957;SDS011;8595;52.542;11.974;2023-04-08T07:46:36;33.37;;;19.13;;
16957;SDS011;8595;52.542;11.974;2023-04-08T07:49:04;32.30;;;19.43;;
16957;SDS011;8595;52.542;11.974;2023-04-08T07:51:31;38.23;;;22.73;;
16957;SDS011;8595;52.542;11.974;2023-04-08T07:53:58;29.27;;;18.27;;
16957;SDS011;8595;52.542;11.974;2023-04-08T07:56:25;34.30;;;20.80;;
16957;SDS011;8595;52.542;11.974;2023-04-08T07:58:52;32.42;;;19.60;;
16957;SDS011;8595;52.542;11.974;2023-04-08T08:01:21;33.40;;;19.23;;
16957;SDS011;8595;52.542;11.974;2023-04-08T08:03:48;32.27;;;20.43;;
16957;SDS011;8595;52.542;11.974;2023-04-08T08:06:15;35.42;;;20.90;;
16957;SDS011;8595;52.542;11.974;2023-04-08T08:08:42;33.85;;;19.73;;
16957;SDS011;8595;52.542;11.974;2023-04-08T08:11:09;36.30;;;20.60;;
16957;SDS011;8595;52.542;11.974;2023-04-08T08:13:35;39.53;;;22.53;;
16957;SDS011;8595;52.542;11.974;2023-04-08T08:16:02;35.17;;;20.23;;
16957;SDS011;8595;52.542;11.974;2023-04-08T08:18:34;33.28;;;19.00;;
16957;SDS011;8595;52.542;11.974;2023-04-08T08:21:00;34.85;;;19.60;;
16957;SDS011;8595;52.542;11.974;2023-04-08T08:23:27;34.93;;;20.53;;
16957;SDS011;8595;52.542;11.974;2023-04-08T08:25:57;31.98;;;19.10;;
16957;SDS011;8595;52.542;11.974;2023-04-08T08:28:26;37.50;;;20.40;;
16957;SDS011;8595;52.542;11.974;2023-04-08T08:30:52;34.27;;;19.03;;
16957;SDS011;8595;52.542;11.974;2023-04-08T08:33:19;30.90;;;18.25;;
16957;SDS011;8595;52.542;11.974;2023-04-08T08:35:47;35.30;;;20.60;;
16957;SDS011;8595;52.542;11.974;2023-04-08T08:38:14;33.53;;;21.27;;
16957;SDS011;8595;52.542;11.974;2023-04-08T08:40:42;33.13;;;20.80;;
16957;SDS011;8595;52.542;11.974;2023-04-08T08:43:09;33.55;;;20.60;;
16957;SDS011;8595;52.542;11.974;2023-04-08T08:45:37;27.93;;;17.80;;
16957;SDS011;8595;52.542;11.974;2023-04-08T08:48:04;31.02;;;18.85;;
16957;SDS011;8595;52.542;11.974;2023-04-08T08:50:32;31.38;;;20.08;;
16957;SDS011;8595;52.542;11.974;2023-04-08T08:53:01;33.00;;;21.90;;
16957;SDS011;8595;52.542;11.974;2023-04-08T08:55:29;36.03;;;21.60;;
16957;SDS011;8595;52.542;11.974;2023-04-08T08:57:57;35.30;;;22.15;;
16957;SDS011;8595;52.542;11.974;2023-04-08T09:00:33;35.47;;;20.23;;
16957;SDS011;8595;52.542;11.974;2023-04-08T09:03:14;32.30;;;18.92;;
16957;SDS011;8595;52.542;11.974;2023-04-08T09:05:52;32.80;;;20.33;;
16957;SDS011;8595;52.542;11.974;2023-04-08T09:08:24;28.95;;;18.48;;
16957;SDS011;8595;52.542;11.974;2023-04-08T09:10:53;33.13;;;20.35;;
16957;SDS011;8595;52.542;11.974;2023-04-08T09:13:20;29.05;;;17.48;;
16957;SDS011;8595;52.542;11.974;2023-04-08T09:16:01;35.45;;;19.67;;
16957;SDS011;8595;52.542;11.974;2023-04-08T09:18:29;33.40;;;19.35;;
16957;SDS011;8595;52.542;11.974;2023-04-08T09:20:58;33.88;;;20.27;;
16957;SDS011;8595;52.542;11.974;2023-04-08T09:23:32;32.03;;;18.40;;
16957;SDS011;8595;52.542;11.974;2023-04-08T09:26:06;30.75;;;18.05;;
16957;SDS011;8595;52.542;11.974;2023-04-08T09:28:34;31.48;;;18.52;;
16957;SDS011;8595;52.542;11.974;2023-04-08T09:31:08;35.17;;;19.05;;
16957;SDS011;8595;52.542;11.974;2023-04-08T09:33:44;30.95;;;18.55;;
16957;SDS011;8595;52.542;11.974;2023-04-08T09:36:13;31.25;;;19.60;;
16957;SDS011;8595;52.542;11.974;2023-04-08T09:38:42;34.80;;;19.67;;
16957;SDS011;8595;52.542;11.974;2023-04-08T09:41:11;29.45;;;19.10;;
16957;SDS011;8595;52.542;11.974;2023-04-08T09:43:41;32.05;;;19.63;;
16957;SDS011;8595;52.542;11.974;2023-04-08T09:46:12;30.65;;;19.00;;
16957;SDS011;8595;52.542;11.974;2023-04-08T09:48:42;26.42;;;16.85;;
16957;SDS011;8595;52.542;11.974;2023-04-08T09:51:15;25.90;;;16.65;;
16957;SDS011;8595;52.542;11.974;2023-04-08T09:53:46;27.98;;;16.33;;
16957;SDS011;8595;52.542;11.974;2023-04-08T09:56:15;27.23;;;17.50;;
16957;SDS011;8595;52.542;11.974;2023-04-08T09:58:51;30.20;;;17.83;;
16957;SDS011;8595;52.542;11.974;2023-04-08T10:01:25;24.35;;;15.70;;
16957;SDS011;8595;52.542;11.974;2023-04-08T10:03:57;27.52;;;17.40;;
16957;SDS011;8595;52.542;11.974;2023-04-08T10:06:26;29.10;;;17.90;;
16957;SDS011;8595;52.542;11.974;2023-04-08T10:08:56;24.88;;;16.67;;
16957;SDS011;8595;52.542;11.974;2023-04-08T10:11:24;24.92;;;17.70;;
16957;SDS011;8595;52.542;11.974;2023-04-08T10:13:50;27.77;;;17.65;;
16957;SDS011;8595;52.542;11.974;2023-04-08T10:16:18;27.67;;;17.77;;
16957;SDS011;8595;52.542;11.974;2023-04-08T10:18:46;25.92;;;16.63;;
16957;SDS011;8595;52.542;11.974;2023-04-08T10:24:06;28.40;;;18.73;;
16957;SDS011;8595;52.542;11.974;2023-04-08T10:26:35;23.73;;;15.82;;
16957;SDS011;8595;52.542;11.974;2023-04-08T10:31:55;27.30;;;17.42;;
16957;SDS011;8595;52.542;11.974;2023-04-08T10:34:23;26.17;;;18.60;;
16957;SDS011;8595;52.542;11.974;2023-04-08T10:36:53;25.02;;;18.10;;
16957;SDS011;8595;52.542;11.974;2023-04-08T10:39:24;22.85;;;16.95;;
16957;SDS011;8595;52.542;11.974;2023-04-08T10:41:52;26.40;;;18.38;;
16957;SDS011;8595;52.542;11.974;2023-04-08T10:44:20;39.10;;;23.42;;
16957;SDS011;8595;52.542;11.974;2023-04-08T10:46:50;30.58;;;20.20;;
16957;SDS011;8595;52.542;11.974;2023-04-08T10:49:17;27.25;;;19.08;;
16957;SDS011;8595;52.542;11.974;2023-04-08T10:51:46;36.22;;;20.98;;
16957;SDS011;8595;52.542;11.974;2023-04-08T10:54:13;27.17;;;16.95;;
16957;SDS011;8595;52.542;11.974;2023-04-08T10:56:46;26.58;;;18.25;;
16957;SDS011;8595;52.542;11.974;2023-04-08T10:59:14;30.70;;;20.35;;
16957;SDS011;8595;52.542;11.974;2023-04-08T11:01:44;23.45;;;17.13;;
16957;SDS011;8595;52.542;11.974;2023-04-08T11:04:12;26.65;;;19.38;;
16957;SDS011;8595;52.542;11.974;2023-04-08T11:06:40;31.05;;;21.20;;
16957;SDS011;8595;52.542;11.974;2023-04-08T11:09:08;26.23;;;18.25;;
16957;SDS011;8595;52.542;11.974;2023-04-08T11:11:35;23.92;;;18.55;;
16957;SDS011;8595;52.542;11.974;2023-04-08T11:14:03;26.48;;;18.85;;
16957;SDS011;8595;52.542;11.974;2023-04-08T11:16:32;28.40;;;17.92;;
16957;SDS011;8595;52.542;11.974;2023-04-08T11:19:00;26.45;;;18.08;;
16957;SDS011;8595;52.542;11.974;2023-04-08T11:21:27;42.78;;;22.77;;
16957;SDS011;8595;52.542;11.974;2023-04-08T11:23:55;30.23;;;22.15;;
16957;SDS011;8595;52.542;11.974;2023-04-08T11:26:22;26.35;;;20.15;;
16957;SDS011;8595;52.542;11.974;2023-04-08T11:28:51;22.90;;;16.48;;
16957;SDS011;8595;52.542;11.974;2023-04-08T11:31:21;27.05;;;19.20;;
16957;SDS011;8595;52.542;11.974;2023-04-08T11:33:48;27.58;;;18.17;;
16957;SDS011;8595;52.542;11.974;2023-04-08T11:36:18;26.95;;;16.33;;
16957;SDS011;8595;52.542;11.974;2023-04-08T11:38:46;23.25;;;17.25;;
16957;SDS011;8595;52.542;11.974;2023-04-08T11:41:13;27.20;;;17.02;;
16957;SDS011;8595;52.542;11.974;2023-04-08T11:43:49;25.77;;;17.55;;
16957;SDS011;8595;52.542;11.974;2023-04-08T11:46:17;21.98;;;15.73;;
16957;SDS011;8595;52.542;11.974;2023-04-08T11:48:57;27.00;;;18.50;;
16957;SDS011;8595;52.542;11.974;2023-04-08T11:51:24;26.63;;;18.42;;
16957;SDS011;8595;52.542;11.974;2023-04-08T11:53:51;24.60;;;17.17;;
16957;SDS011;8595;52.542;11.974;2023-04-08T11:56:19;24.73;;;19.58;;
16957;SDS011;8595;52.542;11.974;2023-04-08T11:58:47;27.77;;;18.00;;
16957;SDS011;8595;52.542;11.974;2023-04-08T12:01:14;27.98;;;17.73;;
16957;SDS011;8595;52.542;11.974;2023-04-08T12:03:52;24.95;;;17.67;;
16957;SDS011;8595;52.542;11.974;2023-04-08T12:06:20;23.83;;;17.50;;
16957;SDS011;8595;52.542;11.974;2023-04-08T12:08:47;24.70;;;18.65;;
16957;SDS011;8595;52.542;11.974;2023-04-08T12:11:14;24.83;;;17.98;;
16957;SDS011;8595;52.542;11.974;2023-04-08T12:13:41;31.30;;;21.15;;
16957;SDS011;8595;52.542;11.974;2023-04-08T12:16:08;25.23;;;18.50;;
16957;SDS011;8595;52.542;11.974;2023-04-08T12:18:35;23.65;;;16.60;;
16957;SDS011;8595;52.542;11.974;2023-04-08T12:21:03;24.13;;;17.52;;
16957;SDS011;8595;52.542;11.974;2023-04-08T12:23:31;25.30;;;18.83;;
16957;SDS011;8595;52.542;11.974;2023-04-08T12:25:57;27.80;;;18.70;;
16957;SDS011;8595;52.542;11.974;2023-04-08T12:28:24;22.90;;;16.83;;
16957;SDS011;8595;52.542;11.974;2023-04-08T12:30:51;23.95;;;18.25;;
16957;SDS011;8595;52.542;11.974;2023-04-08T12:33:17;24.85;;;18.15;;
16957;SDS011;8595;52.542;11.974;2023-04-08T12:35:44;29.13;;;20.15;;
16957;SDS011;8595;52.542;11.974;2023-04-08T12:38:11;24.42;;;16.77;;
16957;SDS011;8595;52.542;11.974;2023-04-08T12:40:39;21.33;;;16.65;;
16957;SDS011;8595;52.542;11.974;2023-04-08T12:43:06;25.13;;;17.33;;
16957;SDS011;8595;52.542;11.974;2023-04-08T12:45:32;51.90;;;39.63;;
16957;SDS011;8595;52.542;11.974;2023-04-08T12:47:59;35.80;;;27.25;;
16957;SDS011;8595;52.542;11.974;2023-04-08T12:50:26;25.60;;;21.52;;
16957;SDS011;8595;52.542;11.974;2023-04-08T12:52:53;26.42;;;19.55;;
16957;SDS011;8595;52.542;11.974;2023-04-08T12:55:20;37.25;;;24.88;;
16957;SDS011;8595;52.542;11.974;2023-04-08T12:57:50;49.88;;;34.10;;
16957;SDS011;8595;52.542;11.974;2023-04-08T13:00:17;32.47;;;23.65;;
16957;SDS011;8595;52.542;11.974;2023-04-08T13:02:43;24.02;;;17.58;;
16957;SDS011;8595;52.542;11.974;2023-04-08T13:05:10;25.20;;;17.35;;
16957;SDS011;8595;52.542;11.974;2023-04-08T13:07:37;22.48;;;16.40;;
16957;SDS011;8595;52.542;11.974;2023-04-08T13:10:05;28.88;;;20.50;;
16957;SDS011;8595;52.542;11.974;2023-04-08T13:12:33;27.42;;;21.23;;
16957;SDS011;8595;52.542;11.974;2023-04-08T13:15:01;24.05;;;18.60;;
16957;SDS011;8595;52.542;11.974;2023-04-08T13:17:28;23.38;;;18.08;;
16957;SDS011;8595;52.542;11.974;2023-04-08T13:19:55;25.08;;;18.27;;
16957;SDS011;8595;52.542;11.974;2023-04-08T13:22:21;22.05;;;17.42;;
16957;SDS011;8595;52.542;11.974;2023-04-08T13:24:48;24.50;;;16.67;;
16957;SDS011;8595;52.542;11.974;2023-04-08T13:27:15;22.17;;;16.38;;
16957;SDS011;8595;52.542;11.974;2023-04-08T13:29:41;23.92;;;16.25;;
16957;SDS011;8595;52.542;11.974;2023-04-08T13:32:09;22.73;;;15.93;;
16957;SDS011;8595;52.542;11.974;2023-04-08T13:34:36;19.40;;;16.02;;
16957;SDS011;8595;52.542;11.974;2023-04-08T13:37:03;20.35;;;14.95;;
16957;SDS011;8595;52.542;11.974;2023-04-08T13:39:29;23.58;;;16.98;;
16957;SDS011;8595;52.542;11.974;2023-04-08T13:41:56;21.35;;;15.75;;
16957;SDS011;8595;52.542;11.974;2023-04-08T13:44:24;23.05;;;16.88;;
16957;SDS011;8595;52.542;11.974;2023-04-08T13:46:51;23.42;;;17.02;;
16957;SDS011;8595;52.542;11.974;2023-04-08T13:49:19;21.80;;;16.55;;
16957;SDS011;8595;52.542;11.974;2023-04-08T13:51:46;20.27;;;15.55;;
16957;SDS011;8595;52.542;11.974;2023-04-08T13:54:12;20.73;;;14.80;;
16957;SDS011;8595;52.542;11.974;2023-04-08T13:56:39;19.10;;;14.57;;
16957;SDS011;8595;52.542;11.974;2023-04-08T13:59:06;23.20;;;14.75;;
16957;SDS011;8595;52.542;11.974;2023-04-08T14:01:34;31.17;;;20.98;;
16957;SDS011;8595;52.542;11.974;2023-04-08T14:04:01;24.30;;;17.92;;
16957;SDS011;8595;52.542;11.974;2023-04-08T14:06:29;23.10;;;16.77;;
16957;SDS011;8595;52.542;11.974;2023-04-08T14:08:56;22.17;;;16.92;;
16957;SDS011;8595;52.542;11.974;2023-04-08T14:11:23;21.60;;;15.60;;
16957;SDS011;8595;52.542;11.974;2023-04-08T14:13:50;21.42;;;16.30;;
16957;SDS011;8595;52.542;11.974;2023-04-08T14:16:16;24.95;;;17.70;;
16957;SDS011;8595;52.542;11.974;2023-04-08T14:18:43;19.90;;;14.75;;
16957;SDS011;8595;52.542;11.974;2023-04-08T14:21:10;20.65;;;15.23;;
16957;SDS011;8595;52.542;11.974;2023-04-08T14:23:40;22.95;;;16.67;;
16957;SDS011;8595;52.542;11.974;2023-04-08T14:26:07;22.02;;;16.13;;
16957;SDS011;8595;52.542;11.974;2023-04-08T14:28:34;22.42;;;17.13;;
16957;SDS011;8595;52.542;11.974;2023-04-08T14:31:00;20.23;;;14.93;;